Time;durP1;ratioP1;P1;durP2;ratioP2;P2;SDS_P1;SDS_P2;PMS_P1;PMS_P2;Temp;Humidity;BMP_temperature;BMP_pressure;BME280_temperature;BME280_humidity;BME280_pressure;Samples;Min_cycle;Max_cycle;Signal;HPM_P1;HPM_P2
2023/09/06 00:02:12;;;;;;;1.00;1.00;;;18.20;92.30;;;;;;5093818;28;20403;-68
2023/09/06 00:04:38;;;;;;;1.20;1.10;;;18.20;91.90;;;;;;5093753;28;20392;-68
2023/09/06 00:07:03;;;;;;;1.00;1.00;;;18.20;92.20;;;;;;5093238;28;20044;-68
2023/09/06 00:09:29;;;;;;;1.00;0.90;;;18.20;93.20;;;;;;5093436;28;20044;-68
2023/09/06 00:11:55;;;;;;;0.90;0.90;;;18.20;92.90;;;;;;5093601;28;20036;-68
2023/09/06 00:14:20;;;;;;;0.95;0.85;;;18.00;91.60;;;;;;5109042;28;20047;-68
2023/09/06 00:16:49;;;;;;;1.00;1.00;;;18.50;91.40;;;;;;5093289;28;20507;-68
2023/09/06 00:19:15;;;;;;;0.88;0.88;;;18.10;91.00;;;;;;5093535;28;20032;-68
2023/09/06 00:21:43;;;;;;;1.88;1.20;;;18.10;90.40;;;;;;5093606;28;20052;-68
2023/09/06 00:24:12;;;;;;;0.70;0.70;;;18.10;90.30;;;;;;5093436;28;20399;-68
2023/09/06 00:26:42;;;;;;;0.80;0.80;;;17.90;90.90;;;;;;5093486;28;20385;-68
2023/09/06 00:29:08;;;;;;;1.07;1.00;;;18.10;90.10;;;;;;5093396;28;20488;-68
2023/09/06 00:31:36;;;;;;;1.15;1.13;;;18.00;88.00;;;;;;5093055;28;20273;-68
2023/09/06 00:34:02;;;;;;;1.05;1.02;;;18.10;84.90;;;;;;5093057;28;20047;-68
2023/09/06 00:36:29;;;;;;;2.00;1.00;;;17.90;84.20;;;;;;5093366;28;20474;-68
2023/09/06 00:38:58;;;;;;;0.80;0.80;;;17.90;90.00;;;;;;5092533;28;20048;-68
2023/09/06 00:41:24;;;;;;;1.38;0.95;;;17.90;90.90;;;;;;5091697;28;20093;-68
2023/09/06 00:43:50;;;;;;;1.20;1.10;;;17.80;90.40;;;;;;5092955;28;20043;-68
2023/09/06 00:46:17;;;;;;;1.38;1.10;;;17.80;89.10;;;;;;5092884;28;20123;-68
2023/09/06 00:48:42;;;;;;;1.60;1.40;;;17.70;90.80;;;;;;5092884;28;20067;-68
2023/09/06 00:51:08;;;;;;;1.02;0.98;;;17.80;93.50;;;;;;5093245;28;20065;-67
2023/09/06 00:53:34;;;;;;;1.25;1.15;;;17.90;94.20;;;;;;5092881;28;20396;-67
2023/09/06 00:56:03;;;;;;;1.05;1.05;;;17.60;95.80;;;;;;5092749;28;20042;-67
2023/09/06 00:58:30;;;;;;;1.10;1.10;;;17.60;95.60;;;;;;5091743;28;20036;-67
2023/09/06 01:00:56;;;;;;;1.40;1.30;;;17.60;95.10;;;;;;5093085;28;20036;-67
2023/09/06 01:03:21;;;;;;;1.13;1.00;;;17.60;98.10;;;;;;5093085;28;20452;-67
2023/09/06 01:06:01;;;;;;;1.30;1.20;;;17.60;99.60;;;;;;5092782;28;20135;-67
2023/09/06 01:08:35;;;;;;;1.35;1.20;;;17.50;99.70;;;;;;5091413;28;20083;-67
2023/09/06 01:11:27;;;;;;;0.82;0.82;;;17.40;99.70;;;;;;5093094;28;20153;-67
2023/09/06 01:13:59;;;;;;;1.10;1.10;;;17.10;99.60;;;;;;5089966;28;20080;-67
2023/09/06 01:16:44;;;;;;;1.45;1.08;;;17.40;99.80;;;;;;5091425;28;20044;-68
2023/09/06 01:19:13;;;;;;;1.00;1.00;;;17.40;99.60;;;;;;5091470;28;20048;-68
2023/09/06 01:22:08;;;;;;;1.77;1.48;;;17.30;99.90;;;;;;5092648;28;20044;-68
2023/09/06 01:24:35;;;;;;;1.27;1.17;;;17.40;99.90;;;;;;5074415;28;20189;-68
2023/09/06 01:27:01;;;;;;;2.30;1.35;;;17.40;99.90;;;;;;5091318;28;20408;-67
2023/09/06 01:29:29;;;;;;;1.40;1.30;;;17.30;99.90;;;;;;5092745;28;20036;-68
2023/09/06 01:31:54;;;;;;;1.25;1.15;;;17.20;99.90;;;;;;5091531;28;20050;-67
2023/09/06 01:34:20;;;;;;;1.30;1.20;;;17.40;99.90;;;;;;5092797;28;20407;-67
2023/09/06 01:36:46;;;;;;;1.00;1.00;;;17.20;99.90;;;;;;5108723;28;20471;-68
2023/09/06 01:39:11;;;;;;;1.60;1.30;;;17.50;99.90;;;;;;5108149;28;20043;-68
2023/09/06 01:41:37;;;;;;;1.10;1.05;;;16.90;99.90;;;;;;5092698;28;20407;-68
2023/09/06 01:44:02;;;;;;;1.38;1.27;;;17.30;99.90;;;;;;5074503;28;20507;-67
2023/09/06 01:46:28;;;;;;;1.33;1.23;;;17.10;99.90;;;;;;5108336;28;20036;-69
2023/09/06 01:48:53;;;;;;;1.17;1.08;;;17.10;99.90;;;;;;5108168;28;20046;-68
2023/09/06 01:51:19;;;;;;;1.35;1.25;;;17.00;99.90;;;;;;5110309;28;20032;-68
2023/09/06 01:53:45;;;;;;;1.60;0.95;;;17.00;99.90;;;;;;5111779;28;20327;-68
2023/09/06 01:56:10;;;;;;;1.02;1.02;;;17.00;99.90;;;;;;5112072;28;20044;-68
2023/09/06 01:58:37;;;;;;;1.10;1.00;;;16.90;99.90;;;;;;5111725;28;20040;-68
2023/09/06 02:01:09;;;;;;;1.23;1.13;;;16.80;99.90;;;;;;5094670;28;20036;-66
2023/09/06 02:03:35;;;;;;;0.90;0.90;;;17.00;99.90;;;;;;5096182;28;20036;-65
2023/09/06 02:06:02;;;;;;;1.30;1.20;;;16.90;99.90;;;;;;5095665;28;20063;-65
2023/09/06 02:08:27;;;;;;;1.20;1.10;;;16.90;99.90;;;;;;5094464;28;20040;-66
2023/09/06 02:10:53;;;;;;;1.25;1.17;;;17.00;99.90;;;;;;5111450;28;20403;-65
2023/09/06 02:13:18;;;;;;;1.23;1.13;;;16.80;99.90;;;;;;5096020;28;20492;-65
2023/09/06 02:15:44;;;;;;;0.95;0.90;;;16.70;99.90;;;;;;5095679;28;20036;-65
2023/09/06 02:18:15;;;;;;;1.05;1.05;;;16.70;99.90;;;;;;5095429;28;20040;-65
2023/09/06 02:20:44;;;;;;;1.38;1.27;;;16.60;99.90;;;;;;5095863;28;20055;-65
2023/09/06 02:23:10;;;;;;;0.95;0.95;;;16.70;99.90;;;;;;5095828;28;20044;-67
2023/09/06 02:25:36;;;;;;;1.08;1.08;;;16.70;99.90;;;;;;5095693;28;20428;-67
2023/09/06 02:28:07;;;;;;;1.10;1.00;;;16.60;99.90;;;;;;5095334;28;20125;-67
2023/09/06 02:30:37;;;;;;;1.20;1.10;;;16.70;99.90;;;;;;5093994;28;20044;-67
2023/09/06 02:33:08;;;;;;;0.85;0.85;;;16.70;99.90;;;;;;5095546;28;20093;-67
2023/09/06 02:35:35;;;;;;;0.80;0.80;;;16.70;99.90;;;;;;5095581;28;20039;-67
2023/09/06 02:38:01;;;;;;;1.58;1.10;;;16.90;99.90;;;;;;5095486;28;20052;-67
2023/09/06 02:40:26;;;;;;;1.23;1.13;;;16.80;99.90;;;;;;5095480;28;20471;-67
2023/09/06 02:42:53;;;;;;;1.63;1.52;;;16.70;99.90;;;;;;5094995;28;20040;-67
2023/09/06 02:45:22;;;;;;;1.05;1.05;;;16.60;99.90;;;;;;5095021;28;20044;-67
2023/09/06 02:47:51;;;;;;;1.30;1.20;;;16.80;99.90;;;;;;5095310;28;20040;-67
2023/09/06 02:50:24;;;;;;;1.17;0.90;;;16.80;99.90;;;;;;5110756;28;20085;-67
2023/09/06 02:52:53;;;;;;;0.95;0.95;;;16.60;99.90;;;;;;5093976;28;20480;-67
2023/09/06 02:55:19;;;;;;;1.10;1.00;;;16.90;99.90;;;;;;5094849;28;20377;-66
2023/09/06 02:57:44;;;;;;;1.02;1.00;;;16.60;99.90;;;;;;5110518;28;20043;-67
2023/09/06 03:00:24;;;;;;;1.20;1.10;;;17.50;99.90;;;;;;5094995;28;20073;-67
2023/09/06 03:02:52;;;;;;;1.23;1.13;;;16.60;99.90;;;;;;5092683;28;20044;-67
2023/09/06 03:05:18;;;;;;;0.90;0.90;;;16.80;99.90;;;;;;5094771;28;20056;-67
2023/09/06 03:07:53;;;;;;;1.52;1.10;;;16.70;99.90;;;;;;5094597;28;20503;-67
2023/09/06 03:10:20;;;;;;;0.80;0.80;;;17.30;99.90;;;;;;5094766;28;20036;-67
2023/09/06 03:12:56;;;;;;;1.08;1.05;;;16.60;99.90;;;;;;5093374;28;20047;-68
2023/09/06 03:15:23;;;;;;;1.00;1.00;;;16.60;99.90;;;;;;5093196;28;20040;-68
2023/09/06 03:17:51;;;;;;;0.85;0.85;;;16.70;99.90;;;;;;5093444;28;20040;-69
2023/09/06 03:20:42;;;;;;;1.10;1.10;;;16.90;99.90;;;;;;5093087;28;20048;-68
2023/09/06 03:23:19;;;;;;;0.90;0.90;;;16.60;99.90;;;;;;5094398;28;20039;-69
2023/09/06 03:25:48;;;;;;;0.98;0.98;;;17.20;99.90;;;;;;5094334;28;20110;-69
2023/09/06 03:28:15;;;;;;;1.10;1.00;;;16.60;99.90;;;;;;5094537;28;20059;-68
2023/09/06 03:30:41;;;;;;;1.00;0.88;;;17.40;99.90;;;;;;5094145;28;20040;-70
2023/09/06 03:33:07;;;;;;;1.60;1.30;;;16.50;99.90;;;;;;5092952;28;20044;-68
2023/09/06 03:35:33;;;;;;;1.40;1.08;;;17.30;99.90;;;;;;5094312;28;20050;-68
2023/09/06 03:37:59;;;;;;;1.02;0.93;;;16.80;99.90;;;;;;5092763;28;20467;-68
2023/09/06 03:40:25;;;;;;;1.33;1.23;;;16.60;99.90;;;;;;5094256;28;20031;-68
2023/09/06 03:42:54;;;;;;;1.40;1.17;;;16.70;99.90;;;;;;5109746;28;20070;-68
2023/09/06 03:45:24;;;;;;;0.80;0.80;;;16.70;99.90;;;;;;5109840;28;20044;-68
2023/09/06 03:47:54;;;;;;;1.03;0.93;;;17.20;99.90;;;;;;5094227;28;20411;-68
2023/09/06 03:50:23;;;;;;;1.00;1.00;;;16.60;99.90;;;;;;5092471;28;20393;-68
2023/09/06 03:52:50;;;;;;;1.10;1.00;;;17.30;99.90;;;;;;5094052;28;20032;-68
2023/09/06 03:55:16;;;;;;;1.40;1.25;;;16.70;99.90;;;;;;5092445;28;20051;-68
2023/09/06 03:57:42;;;;;;;0.80;0.80;;;16.90;99.90;;;;;;5092433;28;20089;-68
2023/09/06 04:00:24;;;;;;;1.30;1.23;;;16.40;99.90;;;;;;5092315;28;20495;-68
2023/09/06 04:02:56;;;;;;;0.98;0.98;;;16.50;99.90;;;;;;5093914;28;20086;-68
2023/09/06 04:05:25;;;;;;;1.10;1.10;;;16.50;99.90;;;;;;5092091;28;20435;-68
2023/09/06 04:07:53;;;;;;;1.20;1.10;;;16.50;99.90;;;;;;5093463;28;20043;-69
2023/09/06 04:10:21;;;;;;;1.20;1.10;;;16.80;99.90;;;;;;5092058;28;20423;-67
2023/09/06 04:12:51;;;;;;;1.38;1.15;;;16.60;99.90;;;;;;5093702;28;20040;-67
2023/09/06 04:15:21;;;;;;;0.80;0.80;;;16.60;99.90;;;;;;5075110;28;20403;-68
2023/09/06 04:17:49;;;;;;;1.02;0.95;;;16.60;99.90;;;;;;5093352;28;20048;-69
2023/09/06 04:20:23;;;;;;;0.88;0.82;;;16.70;99.90;;;;;;5092296;28;20036;-66
2023/09/06 04:22:51;;;;;;;0.80;0.80;;;16.50;99.90;;;;;;5093699;28;20396;-66
2023/09/06 04:25:17;;;;;;;1.17;1.08;;;16.70;99.90;;;;;;5093500;28;20385;-67
2023/09/06 04:27:44;;;;;;;0.88;0.88;;;16.50;99.90;;;;;;5091945;28;20040;-66
2023/09/06 04:30:11;;;;;;;2.05;1.10;;;16.50;99.90;;;;;;5093315;28;20043;-66
2023/09/06 04:32:37;;;;;;;1.15;1.08;;;16.30;99.90;;;;;;5074993;28;20036;-67
2023/09/06 04:35:03;;;;;;;0.93;0.93;;;16.50;99.90;;;;;;5091782;28;20040;-68
2023/09/06 04:37:29;;;;;;;1.50;1.27;;;16.60;99.90;;;;;;5093240;28;20068;-68
2023/09/06 04:39:55;;;;;;;1.10;0.98;;;16.50;99.90;;;;;;5093188;28;20484;-68
2023/09/06 04:42:20;;;;;;;1.08;0.98;;;16.80;99.90;;;;;;5093304;28;20434;-65
2023/09/06 04:44:46;;;;;;;1.05;0.90;;;16.60;99.90;;;;;;5093142;28;20032;-65
2023/09/06 04:47:15;;;;;;;1.10;1.00;;;16.60;99.90;;;;;;5093173;28;20044;-65
2023/09/06 04:49:40;;;;;;;0.80;0.80;;;16.60;99.90;;;;;;5093155;28;20096;-65
2023/09/06 04:52:06;;;;;;;0.82;0.82;;;16.90;99.90;;;;;;5092841;28;20039;-65
2023/09/06 04:54:35;;;;;;;1.20;1.10;;;16.50;99.90;;;;;;5092795;28;20127;-65
2023/09/06 04:57:00;;;;;;;1.20;1.10;;;16.60;99.90;;;;;;5093037;28;20040;-65
2023/09/06 04:59:26;;;;;;;0.80;0.80;;;16.40;99.90;;;;;;5092875;28;20449;-65
2023/09/06 05:01:51;;;;;;;1.13;1.00;;;16.40;99.90;;;;;;5092793;28;20058;-65
2023/09/06 05:04:19;;;;;;;1.30;1.20;;;16.70;99.90;;;;;;5108720;28;20050;-65
2023/09/06 05:06:44;;;;;;;1.42;1.33;;;16.40;99.90;;;;;;5092592;28;20071;-65
2023/09/06 05:09:10;;;;;;;1.48;1.20;;;16.60;99.90;;;;;;5091490;28;20052;-65
2023/09/06 05:11:36;;;;;;;1.58;1.10;;;16.70;99.90;;;;;;5093050;28;20036;-65
2023/09/06 05:14:03;;;;;;;1.50;1.20;;;16.60;99.90;;;;;;5074538;28;20040;-65
2023/09/06 05:16:29;;;;;;;0.90;0.90;;;16.40;99.90;;;;;;5092933;28;20039;-65
2023/09/06 05:18:54;;;;;;;0.98;0.98;;;16.90;99.90;;;;;;5091720;28;20048;-66
2023/09/06 05:21:20;;;;;;;0.90;0.90;;;16.70;99.90;;;;;;5108399;28;20047;-65
2023/09/06 05:23:45;;;;;;;1.23;1.13;;;16.50;99.90;;;;;;5091620;28;20043;-65
2023/09/06 05:26:11;;;;;;;2.08;1.02;;;16.60;99.90;;;;;;5110186;28;20498;-65
2023/09/06 05:28:36;;;;;;;1.27;1.17;;;16.80;99.90;;;;;;5112177;28;20645;-65
2023/09/06 05:31:03;;;;;;;1.08;0.98;;;16.50;99.90;;;;;;5096804;28;20476;-65
2023/09/06 05:33:28;;;;;;;0.95;0.95;;;17.10;99.90;;;;;;5095491;28;20545;-67
2023/09/06 05:35:54;;;;;;;0.80;0.80;;;16.70;99.90;;;;;;5112178;28;20040;-65
2023/09/06 05:38:20;;;;;;;1.20;1.10;;;17.20;99.90;;;;;;5096306;28;20040;-65
2023/09/06 05:40:47;;;;;;;1.15;1.10;;;16.70;99.90;;;;;;5096582;28;20149;-65
2023/09/06 05:43:13;;;;;;;1.65;1.55;;;16.70;99.90;;;;;;5096470;28;20047;-66
2023/09/06 05:45:39;;;;;;;1.08;0.98;;;16.80;99.90;;;;;;5095184;28;20044;-64
2023/09/06 05:48:05;;;;;;;0.80;0.80;;;17.10;99.90;;;;;;5096143;28;20050;-65
2023/09/06 05:50:31;;;;;;;1.83;1.10;;;16.70;99.90;;;;;;5096358;28;20052;-65
2023/09/06 05:52:57;;;;;;;1.00;1.00;;;16.60;99.90;;;;;;5096343;28;20568;-65
2023/09/06 05:55:22;;;;;;;1.15;1.00;;;17.00;99.90;;;;;;5111757;28;20103;-65
2023/09/06 05:57:48;;;;;;;1.15;1.02;;;17.00;99.90;;;;;;5096342;28;20039;-65
2023/09/06 06:00:15;;;;;;;1.38;1.17;;;17.50;99.90;;;;;;5095886;28;20497;-65
2023/09/06 06:02:45;;;;;;;1.50;1.10;;;17.00;99.90;;;;;;5096315;28;20143;-68
2023/09/06 06:05:12;;;;;;;1.33;1.10;;;17.40;99.90;;;;;;5095836;28;20055;-71
2023/09/06 06:07:38;;;;;;;1.27;1.17;;;17.80;99.90;;;;;;5094522;28;20135;-68
2023/09/06 06:10:05;;;;;;;1.23;1.13;;;17.50;99.90;;;;;;5094493;28;20032;-70
2023/09/06 06:12:32;;;;;;;1.00;1.00;;;17.30;99.90;;;;;;5095706;28;20051;-68
2023/09/06 06:15:00;;;;;;;1.27;1.17;;;17.50;99.90;;;;;;5095877;28;20505;-68
2023/09/06 06:17:25;;;;;;;0.82;0.82;;;18.10;99.90;;;;;;5095875;28;20395;-69
2023/09/06 06:19:51;;;;;;;1.35;1.25;;;17.40;99.90;;;;;;5111362;28;20077;-68
2023/09/06 06:22:17;;;;;;;1.20;1.10;;;17.50;99.90;;;;;;5095737;28;20059;-68
2023/09/06 06:24:45;;;;;;;5.38;1.30;;;17.70;99.90;;;;;;5095510;28;20043;-68
2023/09/06 06:27:11;;;;;;;1.00;1.00;;;18.30;99.90;;;;;;5094162;28;20040;-68
2023/09/06 06:29:38;;;;;;;1.58;1.20;;;18.30;99.90;;;;;;5095567;28;20399;-68
2023/09/06 06:32:04;;;;;;;1.00;1.00;;;17.60;99.90;;;;;;5095616;28;20035;-68
2023/09/06 06:34:29;;;;;;;1.20;1.15;;;18.00;99.90;;;;;;5094300;28;20036;-68
2023/09/06 06:36:55;;;;;;;1.08;1.05;;;18.00;99.90;;;;;;5095539;28;20032;-68
2023/09/06 06:39:21;;;;;;;1.23;0.93;;;18.10;99.90;;;;;;5095614;28;20246;-68
2023/09/06 06:41:46;;;;;;;1.15;1.05;;;18.10;99.90;;;;;;5111076;28;20085;-67
2023/09/06 06:44:12;;;;;;;0.82;0.80;;;18.70;99.90;;;;;;5095360;28;20042;-67
2023/09/06 06:46:38;;;;;;;1.23;1.13;;;18.40;99.90;;;;;;5095115;28;20529;-68
2023/09/06 06:49:07;;;;;;;0.98;0.98;;;18.90;99.90;;;;;;5094957;28;20433;-67
2023/09/06 06:51:38;;;;;;;1.77;0.90;;;19.10;99.90;;;;;;5095174;28;20115;-67
2023/09/06 06:54:08;;;;;;;0.98;0.90;;;19.10;99.90;;;;;;5095005;28;20040;-67
2023/09/06 06:56:35;;;;;;;1.60;1.10;;;19.40;99.90;;;;;;5095212;28;20036;-67
2023/09/06 06:59:02;;;;;;;0.90;0.90;;;19.20;99.90;;;;;;5095168;28;20051;-67
2023/09/06 07:01:28;;;;;;;1.33;1.17;;;19.60;99.90;;;;;;5095089;28;20446;-67
2023/09/06 07:03:54;;;;;;;0.80;0.80;;;19.60;99.90;;;;;;5094651;28;20100;-67
2023/09/06 07:06:22;;;;;;;0.90;0.90;;;19.60;99.90;;;;;;5094653;28;20092;-67
2023/09/06 07:08:48;;;;;;;0.80;0.80;;;19.90;99.90;;;;;;5094685;28;20040;-67
2023/09/06 07:11:15;;;;;;;0.50;0.50;;;20.00;99.90;;;;;;5094970;28;20047;-67
2023/09/06 07:13:42;;;;;;;0.82;0.73;;;20.20;99.90;;;;;;5110240;28;20036;-67
2023/09/06 07:16:08;;;;;;;0.43;0.43;;;20.40;99.90;;;;;;5094759;28;20031;-68
2023/09/06 07:18:34;;;;;;;0.90;0.90;;;20.60;99.90;;;;;;5094757;28;20035;-67
2023/09/06 07:21:00;;;;;;;1.20;0.88;;;20.50;99.90;;;;;;5093191;28;20403;-67
2023/09/06 07:23:27;;;;;;;0.60;0.60;;;21.00;99.90;;;;;;5094605;28;20036;-67
2023/09/06 07:25:52;;;;;;;0.90;0.90;;;21.50;99.90;;;;;;5094558;28;20043;-68
2023/09/06 07:28:21;;;;;;;1.23;1.13;;;21.50;99.90;;;;;;5110265;28;20036;-68
2023/09/06 07:30:47;;;;;;;1.40;1.10;;;21.10;99.90;;;;;;5094238;28;20048;-68
2023/09/06 07:33:12;;;;;;;0.85;0.85;;;21.60;99.90;;;;;;5094374;28;20036;-68
2023/09/06 07:35:40;;;;;;;1.15;1.00;;;21.50;99.90;;;;;;5094101;28;20044;-67
2023/09/06 07:38:06;;;;;;;0.70;0.70;;;21.70;99.90;;;;;;5094418;28;20040;-67
2023/09/06 07:40:31;;;;;;;1.35;1.02;;;21.70;99.90;;;;;;5094299;28;20414;-67
2023/09/06 07:42:57;;;;;;;2.33;1.10;;;21.90;99.90;;;;;;5094217;28;20539;-67
2023/09/06 07:45:22;;;;;;;0.90;0.90;;;21.60;99.90;;;;;;5094186;28;20044;-68
2023/09/06 07:47:48;;;;;;;2.17;1.02;;;21.80;99.90;;;;;;5093628;28;20059;-68
2023/09/06 07:50:13;;;;;;;0.82;0.82;;;22.00;99.90;;;;;;5093847;28;20059;-67
2023/09/06 07:52:39;;;;;;;1.08;0.98;;;21.90;99.90;;;;;;5109691;28;20028;-67
2023/09/06 07:55:06;;;;;;;2.75;0.98;;;22.20;99.90;;;;;;5092455;28;20549;-67
2023/09/06 07:57:31;;;;;;;0.60;0.60;;;22.10;99.90;;;;;;5092697;28;20047;-67
2023/09/06 07:59:57;;;;;;;1.10;1.00;;;22.60;99.90;;;;;;5109403;28;20479;-67
2023/09/06 08:02:22;;;;;;;0.82;0.70;;;22.40;99.90;;;;;;5109579;28;20047;-67
2023/09/06 08:04:50;;;;;;;0.82;0.82;;;22.80;99.90;;;;;;5093643;28;20039;-68
2023/09/06 08:07:16;;;;;;;0.70;0.57;;;22.40;99.90;;;;;;5092531;28;20055;-67
2023/09/06 08:09:42;;;;;;;0.60;0.60;;;22.90;99.90;;;;;;5092399;28;20100;-67
2023/09/06 08:12:08;;;;;;;0.50;0.50;;;22.90;99.90;;;;;;5092253;28;20044;-67
2023/09/06 08:14:33;;;;;;;0.75;0.70;;;22.80;96.70;;;;;;5109169;28;20494;-67
2023/09/06 08:16:59;;;;;;;0.80;0.80;;;23.20;99.30;;;;;;5093713;28;20036;-67
2023/09/06 08:19:24;;;;;;;0.70;0.70;;;22.90;98.40;;;;;;5093355;28;20044;-67
2023/09/06 08:21:50;;;;;;;0.70;0.70;;;;;;;;;;5093659;28;20072;-67
2023/09/06 08:24:18;;;;;;;0.80;0.80;;;23.10;99.90;;;;;;5093471;28;20163;-67
2023/09/06 08:26:49;;;;;;;1.10;0.93;;;;;;;;;;5075041;28;20089;-67
2023/09/06 08:29:15;;;;;;;;;;;;;;;;;;5093671;28;20555;-67
2023/09/06 08:31:40;;;;;;;0.88;0.88;;;23.40;88.60;;;;;;5093345;28;19979;-67
2023/09/06 08:34:07;;;;;;;0.80;0.80;;;23.70;92.50;;;;;;5074900;28;20071;-67
2023/09/06 08:36:33;;;;;;;0.68;0.68;;;23.70;92.40;;;;;;5093252;28;20042;-67
2023/09/06 08:38:59;;;;;;;1.70;0.80;;;23.50;86.80;;;;;;5093367;28;20046;-67
2023/09/06 08:41:28;;;;;;;0.70;0.63;;;23.60;83.70;;;;;;5093003;28;20119;-67
2023/09/06 08:43:54;;;;;;;1.20;0.80;;;23.70;82.90;;;;;;5091793;28;20071;-68
2023/09/06 08:46:29;;;;;;;0.60;0.60;;;23.80;81.50;;;;;;5091868;28;20047;-67
2023/09/06 08:48:56;;;;;;;0.60;0.60;;;23.80;77.10;;;;;;5091827;28;20089;-67
2023/09/06 08:51:22;;;;;;;0.70;0.70;;;23.80;79.40;;;;;;5093065;28;20096;-67
2023/09/06 08:53:48;;;;;;;0.70;0.70;;;23.90;77.40;;;;;;5093042;28;20392;-67
2023/09/06 08:56:17;;;;;;;0.75;0.75;;;23.90;77.30;;;;;;5093033;28;20085;-67
2023/09/06 08:58:43;;;;;;;0.73;0.73;;;24.00;65.70;;;;;;5091831;28;20050;-67
2023/09/06 09:01:09;;;;;;;0.80;0.80;;;23.90;64.40;;;;;;5093972;28;20070;-66
2023/09/06 09:03:35;;;;;;;0.60;0.60;;;24.10;58.10;;;;;;5095771;28;20040;-66
2023/09/06 09:06:09;;;;;;;0.90;0.90;;;24.10;54.40;;;;;;5096954;28;20083;-65
2023/09/06 09:08:35;;;;;;;1.48;0.80;;;24.30;48.20;;;;;;5097252;28;20051;-65
2023/09/06 09:11:14;;;;;;;1.23;0.90;;;24.30;41.80;;;;;;5095508;28;20054;-65
2023/09/06 09:13:40;;;;;;;0.73;0.73;;;24.40;10.30;;;;;;5096860;28;20035;-65
2023/09/06 09:16:10;;;;;;;0.80;0.80;;;24.50;15.90;;;;;;5095592;28;20040;-64
2023/09/06 09:18:37;;;;;;;;;;;24.50;99.90;;;;;;5096074;28;20075;-65
2023/09/06 09:21:03;;;;;;;1.05;1.02;;;24.40;99.90;;;;;;5095383;28;19916;-65
2023/09/06 09:23:30;;;;;;;0.80;0.80;;;24.40;1.00;;;;;;5096984;28;20032;-65
2023/09/06 09:25:56;;;;;;;0.98;0.88;;;24.50;99.90;;;;;;5096647;28;20043;-65
2023/09/06 09:28:22;;;;;;;2.10;0.95;;;24.50;99.90;;;;;;5096803;28;20031;-65
2023/09/06 09:30:49;;;;;;;0.77;0.77;;;24.50;99.90;;;;;;5096818;28;20032;-65
2023/09/06 09:33:14;;;;;;;0.70;0.70;;;25.10;99.90;;;;;;5096918;28;20449;-68
2023/09/06 09:35:40;;;;;;;0.80;0.80;;;24.60;99.90;;;;;;5112227;28;20044;-68
2023/09/06 09:38:10;;;;;;;0.75;0.75;;;24.70;99.90;;;;;;5096651;28;20475;-68
2023/09/06 09:40:37;;;;;;;0.68;0.68;;;24.80;79.30;;;;;;5096803;28;20403;-68
2023/09/06 09:43:04;;;;;;;1.67;0.70;;;24.80;61.80;;;;;;5112033;28;20086;-68
2023/09/06 09:45:43;;;;;;;0.63;0.63;;;24.80;30.60;;;;;;5096673;28;20078;-68
2023/09/06 09:48:09;;;;;;;0.85;0.85;;;24.80;1.00;;;;;;5096498;28;20036;-70
2023/09/06 09:50:35;;;;;;;0.73;0.73;;;25.60;1.00;;;;;;5078049;28;20036;-68
2023/09/06 09:53:05;;;;;;;0.55;0.55;;;25.00;1.00;;;;;;5096117;28;20119;-67
2023/09/06 09:55:35;;;;;;;0.80;0.80;;;25.10;1.00;;;;;;5094827;28;20454;-68
2023/09/06 09:58:05;;;;;;;0.75;0.75;;;25.20;1.00;;;;;;5096082;28;20051;-68
2023/09/06 10:00:32;;;;;;;0.70;0.70;;;25.30;1.00;;;;;;5094738;28;20053;-68
2023/09/06 10:02:59;;;;;;;0.70;0.70;;;25.40;1.00;;;;;;5096158;28;20048;-68
2023/09/06 10:05:29;;;;;;;0.73;0.73;;;25.50;1.00;;;;;;5095922;28;20059;-69
2023/09/06 10:07:55;;;;;;;;;;;25.60;1.00;;;;;;5094988;28;20411;-68
2023/09/06 10:10:24;;;;;;;1.30;0.75;;;25.70;1.00;;;;;;5095971;28;20018;-68
2023/09/06 10:12:51;;;;;;;0.70;0.70;;;25.90;1.00;;;;;;5094490;28;20051;-66
2023/09/06 10:15:20;;;;;;;0.70;0.70;;;26.20;1.00;;;;;;5095733;28;20044;-68
2023/09/06 10:17:49;;;;;;;0.60;0.60;;;26.70;1.00;;;;;;5095671;28;20044;-67
2023/09/06 10:20:14;;;;;;;1.40;0.80;;;26.20;1.00;;;;;;5094316;28;20079;-66
2023/09/06 10:22:46;;;;;;;0.80;0.80;;;26.30;1.00;;;;;;5095544;28;20136;-66
2023/09/06 10:25:15;;;;;;;0.65;0.65;;;26.40;1.00;;;;;;5095784;28;20050;-66
2023/09/06 10:27:50;;;;;;;1.15;0.90;;;26.40;1.00;;;;;;5095812;28;20540;-66
2023/09/06 10:30:20;;;;;;;0.60;0.60;;;26.50;1.00;;;;;;5095314;28;20129;-67
2023/09/06 10:32:46;;;;;;;;;;;26.50;1.00;;;;;;5095971;28;20044;-66
2023/09/06 10:35:27;;;;;;;1.75;0.70;;;26.50;1.00;;;;;;5095191;28;19922;-67
2023/09/06 10:38:06;;;;;;;;;;;26.60;1.00;;;;;;5095796;28;20035;-66
2023/09/06 10:40:47;;;;;;;1.43;0.90;;;26.70;1.00;;;;;;5093865;28;20009;-65
2023/09/06 10:43:13;;;;;;;0.65;0.65;;;26.80;1.00;;;;;;5095335;28;20059;-65
2023/09/06 10:45:40;;;;;;;0.70;0.70;;;26.70;1.00;;;;;;5095276;28;20051;-66
2023/09/06 10:48:12;;;;;;;0.70;0.70;;;26.80;1.00;;;;;;5095014;28;20044;-66
2023/09/06 10:50:37;;;;;;;0.65;0.65;;;27.00;1.00;;;;;;5094987;28;20036;-67
2023/09/06 10:53:04;;;;;;;0.70;0.70;;;26.80;1.00;;;;;;5094660;28;20038;-65
2023/09/06 10:55:47;;;;;;;0.60;0.60;;;26.90;1.00;;;;;;5093578;28;20036;-65
2023/09/06 10:58:13;;;;;;;0.70;0.70;;;26.90;1.00;;;;;;5094821;28;20495;-65
2023/09/06 11:00:40;;;;;;;0.60;0.60;;;26.90;99.90;;;;;;5093533;28;20047;-66
2023/09/06 11:03:06;;;;;;;0.70;0.70;;;26.80;99.90;;;;;;5094775;28;20082;-65
2023/09/06 11:05:43;;;;;;;0.57;0.57;;;26.90;99.90;;;;;;5094472;28;20080;-65
2023/09/06 11:08:20;;;;;;;0.70;0.70;;;26.90;99.90;;;;;;5094440;28;20032;-66
2023/09/06 11:10:45;;;;;;;0.63;0.63;;;27.00;99.90;;;;;;5094619;28;20487;-66
2023/09/06 11:13:12;;;;;;;0.60;0.60;;;27.00;99.90;;;;;;5110118;28;20145;-65
2023/09/06 11:15:41;;;;;;;0.70;0.70;;;27.40;99.90;;;;;;5094639;28;20502;-66
2023/09/06 11:18:08;;;;;;;1.45;0.68;;;27.00;99.90;;;;;;5094544;28;20036;-65
2023/09/06 11:20:35;;;;;;;0.60;0.60;;;27.00;99.90;;;;;;5094463;28;20043;-66
2023/09/06 11:23:02;;;;;;;0.77;0.77;;;27.10;99.90;;;;;;5093618;28;20050;-66
2023/09/06 11:25:30;;;;;;;0.63;0.63;;;27.10;99.90;;;;;;5094397;28;20040;-66
2023/09/06 11:28:00;;;;;;;0.60;0.60;;;27.10;99.90;;;;;;5094344;28;20142;-66
2023/09/06 11:30:27;;;;;;;1.02;0.80;;;27.20;99.90;;;;;;5094138;28;20056;-65
2023/09/06 11:32:54;;;;;;;0.70;0.70;;;27.10;99.90;;;;;;5093048;28;20048;-66
2023/09/06 11:35:24;;;;;;;0.70;0.70;;;27.20;99.90;;;;;;5092896;28;20082;-67
2023/09/06 11:37:52;;;;;;;0.63;0.63;;;27.20;99.90;;;;;;5094224;28;20114;-66
2023/09/06 11:40:20;;;;;;;0.75;0.75;;;27.30;99.90;;;;;;5094185;28;20514;-66
2023/09/06 11:43:02;;;;;;;2.08;0.70;;;27.30;99.90;;;;;;5093891;28;20079;-66
2023/09/06 11:45:31;;;;;;;0.73;0.73;;;27.40;99.90;;;;;;5094245;28;20372;-66
2023/09/06 11:47:59;;;;;;;0.90;0.88;;;27.40;99.90;;;;;;5094045;28;20036;-67
2023/09/06 11:50:29;;;;;;;0.70;0.70;;;27.40;99.90;;;;;;5094078;28;20036;-66
2023/09/06 11:52:58;;;;;;;0.68;0.63;;;27.50;99.90;;;;;;5094000;28;20043;-66
2023/09/06 11:55:24;;;;;;;1.77;0.80;;;27.60;99.90;;;;;;5092606;28;20048;-66
2023/09/06 11:57:52;;;;;;;0.70;0.70;;;27.60;99.90;;;;;;5093993;28;20036;-66
2023/09/06 12:00:28;;;;;;;0.60;0.60;;;27.70;99.90;;;;;;5093727;28;20078;-65
2023/09/06 12:03:03;;;;;;;0.80;0.73;;;27.70;99.90;;;;;;5094018;28;20115;-66
2023/09/06 12:05:29;;;;;;;0.80;0.80;;;27.80;99.90;;;;;;5093640;28;20067;-66
2023/09/06 12:07:55;;;;;;;0.60;0.60;;;27.70;99.90;;;;;;5093459;28;20047;-66
2023/09/06 12:10:22;;;;;;;0.65;0.65;;;27.80;99.90;;;;;;5093309;28;20044;-66
2023/09/06 12:12:51;;;;;;;0.60;0.60;;;28.00;99.90;;;;;;5093374;28;20044;-69
2023/09/06 12:15:19;;;;;;;0.65;0.60;;;28.00;99.90;;;;;;5093687;28;20032;-68
2023/09/06 12:17:49;;;;;;;0.60;0.60;;;28.00;99.90;;;;;;5093293;28;20040;-69
2023/09/06 12:20:19;;;;;;;1.05;0.50;;;28.10;99.90;;;;;;5092320;28;20075;-69
2023/09/06 12:22:46;;;;;;;0.55;0.55;;;28.10;99.90;;;;;;5092298;28;20545;-69
2023/09/06 12:25:14;;;;;;;0.60;0.60;;;28.10;99.90;;;;;;5093191;28;20066;-68
2023/09/06 12:27:41;;;;;;;0.75;0.75;;;28.20;99.90;;;;;;5093390;28;20377;-68
2023/09/06 12:30:09;;;;;;;0.73;0.70;;;28.20;99.90;;;;;;5093038;28;20411;-68
2023/09/06 12:32:37;;;;;;;0.85;0.63;;;28.30;99.90;;;;;;5093140;28;20114;-67
2023/09/06 12:35:04;;;;;;;0.88;0.80;;;28.30;99.90;;;;;;5093283;28;20061;-68
2023/09/06 12:37:30;;;;;;;1.67;0.52;;;28.40;99.90;;;;;;5091760;28;20419;-66
2023/09/06 12:39:55;;;;;;;0.60;0.60;;;28.50;99.90;;;;;;5093329;28;20065;-67
2023/09/06 12:42:21;;;;;;;0.70;0.70;;;28.30;99.90;;;;;;5092991;28;20044;-67
2023/09/06 12:44:47;;;;;;;0.60;0.60;;;28.40;99.90;;;;;;5108657;28;20058;-66
2023/09/06 12:47:13;;;;;;;0.70;0.60;;;28.40;99.90;;;;;;5091997;28;20062;-67
2023/09/06 12:49:38;;;;;;;0.50;0.50;;;28.40;99.90;;;;;;5092997;28;20119;-66
2023/09/06 12:52:04;;;;;;;0.60;0.60;;;28.40;99.90;;;;;;5074710;28;20051;-66
2023/09/06 12:54:30;;;;;;;0.50;0.50;;;28.40;99.90;;;;;;5093194;28;20038;-67